Main page
METAR-TAF:

METAR-TAF

Airports :

Kerry Airport

Killarney, Ireland

latitude: 52-10-51N, longitude: 9-31-26W, elevation: 34 m

Current weather observation

The report was made 22 minutes ago, at 17:30 UTC
Wind 3 kt from the South/Southeast, varying between East/Southeast and South
Temperature 6°C
Humidity 93%
Pressure 1012 hPa
Visibility 10 km or more
Scattered clouds at a height of 3000 ft

METAR: EIKY 151730Z 15003KT 110V190 9999 SCT030 06/05 Q1012

Time: 17:52 (17:52 UTC)

Forecast

The report was made 52 minutes ago, at 17:00 UTC
Forecast valid from 15 at 18 UTC to 15 at 21 UTC
Wind 9 kt from the Southwest
Visibility 10 km or more
Scattered clouds at a height of 2000 ft

TAF: EIKY 151700Z 1518/1521 22009KT 9999 SCT020

Weather observations and forecasts of more than 4000 airports (METAR and TAF reports).

The available stations are represented by yellow and red dots on the map.

Hover mouse over dot to see the name of the station.

Then click to see weather observations and forecasts.

To change the map : click on the green buttons with a black cross to zoom in, on the green button with a dash to zoom out, or on the green arrows for adjacent maps.


METAR-TAF: